Terminal Aerodrome Forecast
Issued by NWS

Home | Current Version | Previous Version | Text Only | Print | Product List | Glossary On
Versions: 1 2 3 4 5 6 7 8 9 10 11 12 13 14 15 16 17 18 19
000
FTUS46 KSTO 181100
TAFSCK
TAF
KSCK 181138Z 1812/1912 VRB04KT 6SM -RA BR BKN050 OVC070
      TEMPO 1813/1817 4SM BR OVC030
     FM181800 14006KT P6SM BKN050
     FM191000 14006KT 4SM -DZ BR SCT025 BKN035 OVC050=

USA.gov is the U.S. government's official web portal to all federal, state and local government web resources and services.